createdAt,value
2019-05-12T00:01:18.544Z,14.40
2019-05-12T00:06:18.452Z,10.53
2019-05-12T00:11:20.919Z,11.13
2019-05-12T00:16:23.376Z,9.87
2019-05-12T00:21:28.145Z,9.53
2019-05-12T00:26:28.464Z,13.00
2019-05-12T00:31:30.789Z,12.50
2019-05-12T00:36:33.255Z,11.50
2019-05-12T00:41:35.708Z,12.87
2019-05-12T00:46:38.660Z,11.53
2019-05-12T00:51:40.631Z,12.73
2019-05-12T00:56:43.087Z,11.47
2019-05-12T01:01:45.557Z,13.37
2019-05-12T01:06:48.630Z,12.83
2019-05-12T01:11:50.481Z,16.20
2019-05-12T01:16:53.047Z,14.60
2019-05-12T01:21:55.520Z,14.13
2019-05-12T01:26:58.330Z,17.80
2019-05-12T01:32:00.464Z,17.30
2019-05-12T01:37:07.882Z,17.70
2019-05-12T01:42:09.113Z,14.27
2019-05-12T01:47:10.827Z,13.53
2019-05-12T01:52:13.295Z,16.47
2019-05-12T01:57:15.753Z,16.23
2019-05-12T02:02:18.226Z,18.23
2019-05-12T02:07:20.682Z,17.43
2019-05-12T02:12:23.138Z,18.70
2019-05-12T02:17:25.607Z,14.47
2019-05-12T02:22:28.063Z,17.90
2019-05-12T02:27:30.517Z,16.57
2019-05-12T02:32:47.321Z,15.83
2019-05-12T02:37:36.008Z,17.87
2019-05-12T02:42:37.910Z,17.87
2019-05-12T02:47:40.360Z,18.73
2019-05-12T02:52:44.252Z,13.97
2019-05-12T02:57:45.437Z,16.43
2019-05-12T03:02:47.828Z,23.83
2019-05-12T03:07:50.297Z,21.47
2019-05-12T03:12:54.947Z,21.83
2019-05-12T03:17:55.218Z,23.07
2019-05-12T03:22:57.675Z,24.20
2019-05-12T03:28:00.118Z,22.87
2019-05-12T03:33:08.199Z,27.63
2019-05-12T03:38:05.051Z,23.83
2019-05-12T03:43:07.514Z,26.37
2019-05-12T03:48:09.990Z,30.23
2019-05-12T03:53:15.675Z,29.53
2019-05-12T03:58:15.467Z,28.93
2019-05-12T04:03:17.358Z,30.53
2019-05-12T04:08:19.819Z,28.80
2019-05-12T04:13:22.285Z,28.63
2019-05-12T04:18:24.914Z,30.33
2019-05-12T04:23:27.200Z,21.33
2019-05-12T04:28:29.662Z,24.57
2019-05-12T04:33:34.700Z,19.87
2019-05-12T04:38:35.516Z,15.77
2019-05-12T04:43:37.084Z,21.67
2019-05-12T04:48:39.542Z,21.00
2019-05-12T04:53:44.927Z,20.90
2019-05-12T04:58:45.166Z,21.80
2019-05-12T05:03:46.925Z,23.40
2019-05-12T05:08:49.389Z,13.93
2019-05-12T05:13:54.600Z,18.07
2019-05-12T05:18:54.463Z,18.87
2019-05-12T05:23:56.763Z,15.50
2019-05-12T05:28:59.221Z,15.83
2019-05-12T05:34:01.699Z,13.93
2019-05-12T05:39:04.410Z,10.63
2019-05-12T05:44:06.618Z,16.30
2019-05-12T05:49:09.088Z,10.63
2019-05-12T05:54:13.602Z,13.57
2019-05-12T05:59:15.079Z,12.73
2019-05-12T06:04:16.516Z,10.77
2019-05-12T06:09:18.971Z,8.83
2019-05-12T06:14:23.538Z,13.37
2019-05-12T06:19:26.174Z,9.57
2019-05-12T06:24:26.370Z,8.00
2019-05-12T06:29:28.828Z,8.30
2019-05-12T06:34:31.375Z,12.23
2019-05-12T06:39:34.433Z,7.27
2019-05-12T06:44:36.288Z,8.03
2019-05-12T06:49:38.750Z,9.50
2019-05-12T06:54:44.570Z,9.60
2019-05-12T06:59:50.958Z,14.43
2019-05-12T07:04:50.296Z,9.70
2019-05-12T07:09:53.720Z,10.57
2019-05-12T07:14:55.569Z,8.57
2019-05-12T07:19:57.002Z,8.73
2019-05-12T07:24:55.953Z,10.77
2019-05-12T07:29:58.448Z,10.70
2019-05-12T07:35:00.873Z,12.07
2019-05-12T07:40:04.844Z,6.97
2019-05-12T07:45:05.996Z,11.87
2019-05-12T07:50:10.023Z,7.07
2019-05-12T07:55:10.931Z,6.77
2019-05-12T08:00:21.280Z,9.43
2019-05-12T08:05:19.446Z,9.03
2019-05-12T08:10:19.952Z,9.47
2019-05-12T08:15:20.800Z,7.30
2019-05-12T08:20:23.916Z,5.30
2019-05-12T08:25:28.800Z,16.03
2019-05-12T08:30:33.105Z,8.13
2019-05-12T08:35:38.039Z,8.83
2019-05-12T08:40:39.691Z,7.03
2019-05-12T08:45:38.589Z,5.40
2019-05-12T08:50:42.946Z,8.40
2019-05-12T08:55:43.764Z,5.43
2019-05-12T09:00:50.106Z,8.23
2019-05-12T09:05:48.490Z,7.70
2019-05-12T09:10:54.739Z,7.10
2019-05-12T09:15:54.185Z,5.18
2019-05-12T09:20:55.993Z,4.60
2019-05-12T09:25:58.396Z,4.97
2019-05-12T09:31:00.874Z,5.18
2019-05-12T09:36:04.344Z,9.20
2019-05-12T09:41:05.790Z,8.00
2019-05-12T09:46:08.245Z,7.63
2019-05-12T09:51:10.699Z,8.07
2019-05-12T09:56:13.785Z,10.00
2019-05-12T10:01:15.689Z,11.57
2019-05-12T10:06:21.273Z,9.17
2019-05-12T10:11:21.038Z,9.03
2019-05-12T10:16:24.087Z,8.47
2019-05-12T10:21:25.554Z,9.83
2019-05-12T10:26:28.049Z,8.40
2019-05-12T10:31:35.660Z,10.20
2019-05-12T10:36:33.743Z,5.57
2019-05-12T10:41:35.450Z,6.40
2019-05-12T10:46:37.937Z,10.23
2019-05-12T10:51:40.410Z,8.83
2019-05-12T10:56:43.794Z,7.33
2019-05-12T11:01:48.827Z,6.47
2019-05-12T11:06:48.595Z,6.93
2019-05-12T11:11:50.282Z,9.27
2019-05-12T11:16:54.220Z,6.63
2019-05-12T11:21:55.180Z,6.00
2019-05-12T11:26:57.653Z,6.67
2019-05-12T11:32:00.104Z,5.70
2019-05-12T11:37:03.392Z,7.87
2019-05-12T11:42:05.051Z,5.37
2019-05-12T11:47:07.543Z,4.10
2019-05-12T11:52:15.465Z,3.58
2019-05-12T11:57:13.342Z,3.85
2019-05-12T12:02:14.929Z,4.80
2019-05-12T12:07:17.399Z,4.53
2019-05-12T12:12:19.865Z,3.53
2019-05-12T12:17:30.825Z,2.58
2019-05-12T12:22:28.153Z,3.33
2019-05-12T12:27:27.373Z,3.33
2019-05-12T12:32:29.851Z,5.10
2019-05-12T12:37:33.138Z,3.22
2019-05-12T12:42:36.995Z,4.33
2019-05-12T12:47:46.683Z,3.77
2019-05-12T12:52:46.899Z,3.27
2019-05-12T12:57:46.351Z,3.77
2019-05-12T13:02:49.110Z,6.10
2019-05-12T13:07:47.105Z,4.80
2019-05-12T13:12:50.337Z,5.23
2019-05-12T13:17:52.088Z,4.87
2019-05-12T13:22:54.522Z,3.63
2019-05-12T13:28:01.619Z,6.67
2019-05-12T13:32:59.456Z,3.57
2019-05-12T13:38:01.934Z,5.17
2019-05-12T13:43:09.222Z,4.13
2019-05-12T13:48:09.450Z,5.33
2019-05-12T13:53:10.379Z,5.17
2019-05-12T13:58:13.619Z,5.30
2019-05-12T14:03:14.387Z,4.43
2019-05-12T14:08:16.857Z,4.27
2019-05-12T14:13:19.390Z,7.90
2019-05-12T14:18:21.857Z,6.67
2019-05-12T14:23:24.345Z,4.47
2019-05-12T14:28:26.825Z,4.93
2019-05-12T14:33:29.825Z,7.93
2019-05-12T14:38:33.675Z,4.53
2019-05-12T14:43:34.246Z,4.30
2019-05-12T14:48:40.214Z,4.57
2019-05-12T14:53:39.836Z,3.50
2019-05-12T14:58:41.670Z,4.27
2019-05-12T15:03:47.677Z,5.27
2019-05-12T15:08:46.619Z,4.53
2019-05-12T15:13:49.083Z,6.03
2019-05-12T15:18:53.967Z,6.33
2019-05-12T15:23:54.062Z,3.77
2019-05-12T15:28:56.581Z,4.40
2019-05-12T15:33:59.011Z,8.77
2019-05-12T15:39:03.385Z,6.33
2019-05-12T15:44:06.489Z,6.10
2019-05-12T15:49:08.755Z,5.10
2019-05-12T15:54:11.454Z,2.83
2019-05-12T15:59:11.378Z,5.43
2019-05-12T16:04:15.257Z,4.83
2019-05-12T16:09:16.346Z,5.00
2019-05-12T16:14:18.896Z,2.93
2019-05-12T16:19:23.425Z,5.23
2019-05-12T16:24:27.127Z,4.17
2019-05-12T16:29:26.275Z,3.40
2019-05-12T16:34:28.743Z,3.77
2019-05-12T16:39:37.133Z,4.13
2019-05-12T16:44:34.881Z,4.50
2019-05-12T16:49:37.409Z,4.60
2019-05-12T16:54:39.459Z,2.77
2019-05-12T16:59:42.556Z,2.83
2019-05-12T17:04:44.965Z,1.80
2019-05-12T17:09:47.440Z,3.07
2019-05-12T17:14:50.299Z,1.40
2019-05-12T17:19:54.027Z,2.87
2019-05-12T17:24:54.968Z,6.33
2019-05-12T17:29:57.434Z,2.20
2019-05-12T17:34:59.923Z,2.10
2019-05-12T17:40:03.707Z,3.57
2019-05-12T17:45:09.483Z,5.43
2019-05-12T17:50:10.202Z,3.60
2019-05-12T17:55:10.896Z,2.93
2019-05-12T18:00:13.943Z,4.30
2019-05-12T18:05:15.942Z,1.83
2019-05-12T18:10:17.292Z,5.73
2019-05-12T18:15:23.430Z,3.20
2019-05-12T18:20:23.804Z,2.67
2019-05-12T18:25:30.257Z,3.43
2019-05-12T18:30:27.163Z,4.43
2019-05-12T18:35:29.639Z,3.10
2019-05-12T18:40:34.076Z,2.90
2019-05-12T18:45:34.680Z,3.57
2019-05-12T18:50:37.160Z,2.37
2019-05-12T18:55:40.540Z,3.33
2019-05-12T19:00:43.642Z,3.83
2019-05-12T19:05:44.681Z,3.57
2019-05-12T19:10:51.187Z,6.80
2019-05-12T19:15:52.674Z,4.03
2019-05-12T19:20:54.161Z,1.50
2019-05-12T19:25:54.563Z,2.93
2019-05-12T19:31:00.992Z,2.57
2019-05-12T19:36:04.347Z,4.07
2019-05-12T19:41:04.443Z,2.60
2019-05-12T19:46:04.918Z,5.33
2019-05-12T19:51:20.864Z,6.00
2019-05-12T19:56:09.385Z,6.27
2019-05-12T20:01:13.921Z,4.97
2019-05-12T20:06:14.378Z,2.50
2019-05-12T20:11:20.090Z,3.40
2019-05-12T20:16:21.881Z,5.27
2019-05-12T20:21:26.081Z,5.90
2019-05-12T20:26:24.279Z,4.27
2019-05-12T20:31:27.355Z,3.27
2019-05-12T20:36:29.186Z,6.47
2019-05-12T20:41:33.669Z,3.10
2019-05-12T20:46:34.141Z,5.87
2019-05-12T20:51:36.599Z,5.17
2019-05-12T20:56:39.074Z,5.50
2019-05-12T21:01:41.531Z,11.33
2019-05-12T21:06:43.993Z,6.10
2019-05-12T21:11:46.483Z,8.60
2019-05-12T21:16:48.927Z,2.67
2019-05-12T21:21:51.388Z,5.70
2019-05-12T21:26:54.726Z,9.23
2019-05-12T21:31:56.481Z,3.03
2019-05-12T21:37:04.249Z,3.93
2019-05-12T21:42:03.805Z,5.33
2019-05-12T21:47:09.943Z,6.20
2019-05-12T21:52:06.701Z,7.60
2019-05-12T21:57:08.580Z,6.27
2019-05-12T22:02:11.063Z,5.97
2019-05-12T22:07:15.053Z,5.53
2019-05-12T22:12:16.057Z,3.17
2019-05-12T22:17:18.535Z,4.27
2019-05-12T22:22:28.079Z,2.93
2019-05-12T22:27:27.175Z,5.83
2019-05-12T22:32:29.523Z,2.53
2019-05-12T22:37:29.410Z,4.83
2019-05-12T22:42:30.811Z,5.33
2019-05-12T22:47:33.522Z,3.80
2019-05-12T22:52:39.000Z,1.70
2019-05-12T22:57:40.048Z,2.87
2019-05-12T23:02:40.723Z,1.97
2019-05-12T23:07:43.975Z,2.40
2019-05-12T23:12:50.295Z,2.10
2019-05-12T23:17:49.519Z,3.47
2019-05-12T23:22:50.585Z,3.00
2019-05-12T23:27:54.351Z,3.47
2019-05-12T23:32:55.483Z,2.57
2019-05-12T23:37:57.940Z,1.43
2019-05-12T23:43:00.396Z,2.07
2019-05-12T23:48:03.738Z,2.00
2019-05-12T23:53:05.304Z,1.97
2019-05-12T23:58:07.747Z,2.73
